Time;durP1;ratioP1;P1;durP2;ratioP2;P2;SDS_P1;SDS_P2;PMS_P1;PMS_P2;Temp;Humidity;BMP_temperature;BMP_pressure;BME280_temperature;BME280_humidity;BME280_pressure;Samples;Min_cycle;Max_cycle;Signal;HPM_P1;HPM_P2
2023/05/26 00:01:29;;;;;;;1999.90;999.90;;;15.30;97.40;;;;;;5076695;28;20051;-69
2023/05/26 00:03:56;;;;;;;1999.90;999.90;;;15.40;97.10;;;;;;5084045;28;20056;-70
2023/05/26 00:06:24;;;;;;;1999.90;999.90;;;15.50;96.90;;;;;;5084600;28;20433;-69
2023/05/26 00:08:51;;;;;;;1999.90;999.90;;;15.60;97.40;;;;;;5084244;28;20039;-69
2023/05/26 00:11:20;;;;;;;1999.90;999.90;;;15.80;97.80;;;;;;5082784;28;20064;-69
2023/05/26 00:13:47;;;;;;;1999.90;999.90;;;16.00;97.80;;;;;;5078789;28;20032;-69
2023/05/26 00:16:15;;;;;;;1999.90;999.90;;;16.20;97.70;;;;;;5076676;28;20036;-69
2023/05/26 00:18:42;;;;;;;1999.90;999.90;;;16.40;97.30;;;;;;5087529;28;20020;-69
2023/05/26 00:21:09;;;;;;;1999.90;999.90;;;16.50;97.40;;;;;;5084900;28;20032;-69
2023/05/26 00:23:37;;;;;;;1999.90;999.90;;;16.60;97.20;;;;;;5077110;28;20048;-68
2023/05/26 00:26:04;;;;;;;1999.90;999.90;;;16.70;97.00;;;;;;5084318;28;20036;-69
2023/05/26 00:28:32;;;;;;;1999.90;999.90;;;16.80;97.20;;;;;;5066817;28;20025;-69
2023/05/26 00:30:59;;;;;;;1999.90;999.90;;;16.80;97.40;;;;;;5081719;28;20036;-70
2023/05/26 00:33:26;;;;;;;1999.90;999.90;;;17.00;97.70;;;;;;5082083;28;20143;-70
2023/05/26 00:35:54;;;;;;;1999.90;999.90;;;17.10;98.20;;;;;;5084187;28;20041;-71
2023/05/26 00:38:21;;;;;;;1999.90;999.90;;;17.40;98.60;;;;;;5076901;28;20070;-68
2023/05/26 00:40:49;;;;;;;1999.90;999.90;;;17.70;98.70;;;;;;5084673;28;20032;-70
2023/05/26 00:43:17;;;;;;;1999.90;999.90;;;17.80;98.90;;;;;;5078432;28;20371;-70
2023/05/26 00:45:44;;;;;;;1999.90;999.90;;;17.80;99.10;;;;;;5080336;28;20072;-69
2023/05/26 00:48:11;;;;;;;1999.90;999.90;;;17.70;99.30;;;;;;5082782;28;20031;-69
2023/05/26 00:50:39;;;;;;;1999.90;999.90;;;17.50;99.80;;;;;;5081887;28;20476;-70
2023/05/26 00:53:07;;;;;;;1999.90;999.90;;;17.40;99.90;;;;;;5092714;28;20028;-71
2023/05/26 00:55:35;;;;;;;1999.90;999.90;;;17.20;99.90;;;;;;5078097;28;20139;-69
2023/05/26 00:58:03;;;;;;;1999.90;999.90;;;17.10;99.90;;;;;;5079130;28;20040;-69
2023/05/26 01:00:31;;;;;;;1999.90;999.90;;;17.00;99.90;;;;;;5078259;28;20016;-69
2023/05/26 01:02:58;;;;;;;1999.90;999.90;;;16.90;99.90;;;;;;5075236;28;20436;-69
2023/05/26 01:05:26;;;;;;;1999.90;999.90;;;16.90;99.90;;;;;;5078332;28;21520;-70
2023/05/26 01:07:58;;;;;;;1999.90;999.90;;;16.90;99.90;;;;;;5072908;28;20044;-70
2023/05/26 01:10:27;;;;;;;1999.90;999.90;;;16.90;99.90;;;;;;5080832;28;20019;-68
2023/05/26 01:13:12;;;;;;;1999.90;999.90;;;16.90;99.90;;;;;;5075088;28;20473;-70
2023/05/26 01:16:03;;;;;;;1999.90;999.90;;;16.80;99.90;;;;;;5069352;28;20044;-69
2023/05/26 01:18:45;;;;;;;1999.90;999.90;;;16.70;99.90;;;;;;5061423;28;20474;-69
2023/05/26 01:21:14;;;;;;;1999.90;999.90;;;16.70;99.90;;;;;;5083338;28;20070;-69
2023/05/26 01:24:18;;;;;;;1999.90;999.90;;;16.60;99.90;;;;;;5075826;28;20079;-69
2023/05/26 01:26:52;;;;;;;1999.90;999.90;;;16.60;99.90;;;;;;5072520;28;20023;-70
2023/05/26 01:29:22;;;;;;;1999.90;999.90;;;16.60;99.90;;;;;;5077527;28;20031;-69
2023/05/26 01:31:50;;;;;;;1999.90;999.90;;;16.70;99.90;;;;;;5095826;28;20031;-70
2023/05/26 01:34:17;;;;;;;1999.90;999.90;;;16.80;99.90;;;;;;5082160;28;20032;-71
2023/05/26 01:36:44;;;;;;;1999.90;999.90;;;16.90;99.90;;;;;;5088517;28;20566;-70
2023/05/26 01:39:12;;;;;;;1999.90;999.90;;;16.90;99.90;;;;;;5079527;28;20378;-71
2023/05/26 01:41:42;;;;;;;1999.90;999.90;;;17.00;99.60;;;;;;5088909;28;20034;-71
2023/05/26 01:44:38;;;;;;;1999.90;999.90;;;17.00;99.80;;;;;;5082055;28;20103;-71
2023/05/26 01:47:07;;;;;;;1999.90;999.90;;;17.10;99.70;;;;;;5088716;28;20119;-71
2023/05/26 01:49:35;;;;;;;1999.90;999.90;;;17.20;99.60;;;;;;5083353;28;20437;-70
2023/05/26 01:52:07;;;;;;;1999.90;999.90;;;17.20;99.10;;;;;;5088239;28;20028;-72
2023/05/26 01:55:02;;;;;;;1999.90;999.90;;;17.20;98.80;;;;;;5080484;28;20123;-70
2023/05/26 01:57:31;;;;;;;1999.90;999.90;;;17.10;98.60;;;;;;5089077;28;20028;-70
2023/05/26 01:59:58;;;;;;;1999.90;999.90;;;17.00;98.90;;;;;;5082089;28;20035;-72
2023/05/26 02:02:26;;;;;;;1999.90;999.90;;;17.00;98.70;;;;;;5074030;28;20059;-71
2023/05/26 02:04:54;;;;;;;1999.90;999.90;;;16.90;98.60;;;;;;5080992;28;20364;-71
2023/05/26 02:07:22;;;;;;;1999.90;999.90;;;16.90;98.80;;;;;;5083637;28;20106;-70
2023/05/26 02:09:50;;;;;;;1999.90;999.90;;;16.80;99.00;;;;;;5075164;28;20020;-71
2023/05/26 02:12:18;;;;;;;1999.90;999.90;;;16.80;99.20;;;;;;5089145;28;20024;-71
2023/05/26 02:14:46;;;;;;;1999.90;999.90;;;16.70;99.20;;;;;;5083801;28;20032;-71
2023/05/26 02:17:13;;;;;;;1999.90;999.90;;;16.60;99.30;;;;;;5092479;28;20024;-70
2023/05/26 02:19:41;;;;;;;1999.90;999.90;;;16.50;99.40;;;;;;5083302;28;20420;-71
2023/05/26 02:22:08;;;;;;;1999.90;999.90;;;16.40;99.60;;;;;;5085527;28;20113;-70
2023/05/26 02:24:35;;;;;;;1999.90;999.90;;;16.30;99.80;;;;;;5084760;28;20082;-71
2023/05/26 02:27:03;;;;;;;1999.90;999.90;;;16.30;99.50;;;;;;5089414;28;20389;-70
2023/05/26 02:29:30;;;;;;;1999.90;999.90;;;16.20;99.80;;;;;;5080217;28;20059;-72
2023/05/26 02:31:58;;;;;;;1999.90;999.90;;;16.10;99.90;;;;;;5088204;28;20024;-69
2023/05/26 02:34:29;;;;;;;1999.90;999.90;;;16.10;99.80;;;;;;5079579;28;20158;-70
2023/05/26 02:36:56;;;;;;;1999.90;999.90;;;16.00;99.70;;;;;;5071294;28;20535;-70
2023/05/26 02:39:24;;;;;;;1999.90;999.90;;;16.00;99.90;;;;;;5083643;28;20413;-69
2023/05/26 02:41:53;;;;;;;1999.90;999.90;;;16.00;99.60;;;;;;5080610;28;20080;-68
2023/05/26 02:44:21;;;;;;;1999.90;999.90;;;16.00;99.20;;;;;;5083831;28;20020;-70
2023/05/26 02:46:48;;;;;;;1999.90;999.90;;;15.90;99.10;;;;;;5089505;28;20031;-69
2023/05/26 02:49:15;;;;;;;1999.90;999.90;;;15.90;98.60;;;;;;5081889;28;20021;-68
2023/05/26 02:51:43;;;;;;;1999.90;999.90;;;15.80;98.90;;;;;;5094899;28;20747;-70
2023/05/26 02:54:10;;;;;;;1999.90;999.90;;;15.80;98.80;;;;;;5081862;28;20032;-69
2023/05/26 02:56:37;;;;;;;1999.90;999.90;;;15.70;99.00;;;;;;5083596;28;20702;-69
2023/05/26 02:59:06;;;;;;;1999.90;999.90;;;15.70;98.80;;;;;;5078722;28;20563;-69
2023/05/26 03:01:33;;;;;;;1999.90;999.90;;;15.70;98.40;;;;;;5085321;28;20075;-68
2023/05/26 03:04:00;;;;;;;1999.90;999.90;;;15.70;98.40;;;;;;5074229;28;20024;-69
2023/05/26 03:06:28;;;;;;;1999.90;999.90;;;15.70;98.50;;;;;;5076480;28;20390;-70
2023/05/26 03:08:56;;;;;;;1999.90;999.90;;;15.70;98.30;;;;;;5079910;28;20032;-70
2023/05/26 03:11:23;;;;;;;1999.90;999.90;;;15.80;98.30;;;;;;5084638;28;20068;-69
2023/05/26 03:13:50;;;;;;;1999.90;999.90;;;15.80;98.30;;;;;;5081461;28;20035;-69
2023/05/26 03:16:19;;;;;;;1999.90;999.90;;;15.70;98.30;;;;;;5097078;28;20074;-72
2023/05/26 03:18:46;;;;;;;1999.90;999.90;;;15.70;98.40;;;;;;5077975;28;20090;-71
2023/05/26 03:21:14;;;;;;;1999.90;999.90;;;15.70;98.40;;;;;;5081571;28;20111;-70
2023/05/26 03:23:41;;;;;;;1999.90;999.90;;;15.70;98.10;;;;;;5083487;28;20632;-71
2023/05/26 03:26:10;;;;;;;1999.90;999.90;;;15.80;97.80;;;;;;5080416;28;20028;-71
2023/05/26 03:28:38;;;;;;;1999.90;999.90;;;16.00;97.50;;;;;;5086902;28;20682;-71
2023/05/26 03:31:05;;;;;;;1999.90;999.90;;;16.10;97.30;;;;;;5086489;28;20040;-70
2023/05/26 03:33:33;;;;;;;1999.90;999.90;;;16.40;97.00;;;;;;5082812;28;20107;-72
2023/05/26 03:36:00;;;;;;;1999.90;999.90;;;16.60;96.70;;;;;;5087553;28;20043;-69
2023/05/26 03:38:28;;;;;;;1999.90;999.90;;;16.80;96.10;;;;;;5085425;28;20430;-69
2023/05/26 03:40:55;;;;;;;1999.90;999.90;;;16.90;95.70;;;;;;5083034;28;20119;-69
2023/05/26 03:43:23;;;;;;;1999.90;999.90;;;17.00;95.50;;;;;;5088603;28;20021;-70
2023/05/26 03:45:50;;;;;;;1999.90;999.90;;;17.00;95.70;;;;;;5087410;28;20021;-71
2023/05/26 03:48:18;;;;;;;1999.90;999.90;;;17.10;95.10;;;;;;5084041;28;20034;-70
2023/05/26 03:50:46;;;;;;;1999.90;999.90;;;17.00;95.20;;;;;;5082130;28;20024;-69
2023/05/26 03:53:14;;;;;;;1999.90;999.90;;;16.90;94.90;;;;;;5081847;28;20033;-70
2023/05/26 03:55:41;;;;;;;1999.90;999.90;;;16.80;94.70;;;;;;5079146;28;20526;-68
2023/05/26 03:58:09;;;;;;;1999.90;999.90;;;16.70;94.50;;;;;;5078246;28;20104;-70
2023/05/26 04:00:37;;;;;;;1999.90;999.90;;;16.50;94.70;;;;;;5073573;28;20370;-69
2023/05/26 04:03:05;;;;;;;1999.90;999.90;;;16.40;94.60;;;;;;5084069;28;20052;-71
2023/05/26 04:05:33;;;;;;;1999.90;999.90;;;16.40;94.80;;;;;;5076998;28;20027;-71
2023/05/26 04:08:00;;;;;;;1999.90;999.90;;;16.50;94.80;;;;;;5064341;28;21288;-72
2023/05/26 04:10:27;;;;;;;1999.90;999.90;;;16.40;94.70;;;;;;5081336;28;20044;-70
2023/05/26 04:12:55;;;;;;;1999.90;999.90;;;16.40;94.30;;;;;;5082498;28;20055;-73
2023/05/26 04:15:22;;;;;;;1999.90;999.90;;;16.40;94.50;;;;;;5084919;28;20081;-70
2023/05/26 04:17:50;;;;;;;1999.90;999.90;;;16.30;94.40;;;;;;5087974;28;20028;-69
2023/05/26 04:20:17;;;;;;;1999.90;999.90;;;16.20;94.50;;;;;;5082649;28;20035;-69
2023/05/26 04:22:45;;;;;;;1999.90;999.90;;;16.20;95.10;;;;;;5087686;28;20028;-69
2023/05/26 04:25:13;;;;;;;1999.90;999.90;;;16.30;95.60;;;;;;5087541;28;20059;-70
2023/05/26 04:27:42;;;;;;;1999.90;999.90;;;16.40;95.60;;;;;;5097507;28;20019;-70
2023/05/26 04:30:11;;;;;;;1999.90;999.90;;;16.50;95.60;;;;;;5079021;28;20036;-70
2023/05/26 04:32:38;;;;;;;1999.90;999.90;;;16.40;95.60;;;;;;5099514;28;20119;-71
2023/05/26 04:35:06;;;;;;;1999.90;999.90;;;16.30;95.40;;;;;;5087784;28;20151;-68
2023/05/26 04:37:34;;;;;;;1999.90;999.90;;;16.10;95.60;;;;;;5094487;28;20039;-68
2023/05/26 04:40:06;;;;;;;1999.90;999.90;;;16.10;96.00;;;;;;5087993;28;20077;-69
2023/05/26 04:42:34;;;;;;;1999.90;999.90;;;16.00;96.10;;;;;;5067963;28;20036;-69
2023/05/26 04:45:03;;;;;;;1999.90;999.90;;;16.10;95.90;;;;;;5092983;28;20035;-70
2023/05/26 04:47:34;;;;;;;1999.90;999.90;;;16.10;95.70;;;;;;5097309;28;20028;-69
2023/05/26 04:50:02;;;;;;;1999.90;999.90;;;16.10;94.40;;;;;;5085289;28;20028;-72
2023/05/26 04:52:42;;;;;;;1999.90;999.90;;;16.20;94.60;;;;;;5095615;28;20058;-71
2023/05/26 04:55:10;;;;;;;1999.90;999.90;;;16.30;94.90;;;;;;5068720;28;20028;-70
2023/05/26 04:57:37;;;;;;;1999.90;999.90;;;16.30;95.10;;;;;;5089807;28;20080;-70
2023/05/26 05:00:06;;;;;;;1999.90;999.90;;;16.30;95.00;;;;;;5089490;28;20024;-70
2023/05/26 05:02:33;;;;;;;1999.90;999.90;;;16.20;94.50;;;;;;5090266;28;20050;-70
2023/05/26 05:05:01;;;;;;;1999.90;999.90;;;16.10;94.70;;;;;;5080380;28;20035;-70
2023/05/26 05:07:28;;;;;;;1999.90;999.90;;;16.00;94.10;;;;;;5089399;28;20036;-70
2023/05/26 05:09:55;;;;;;;1999.90;999.90;;;15.80;93.50;;;;;;5084758;28;20032;-70
2023/05/26 05:12:23;;;;;;;1999.90;999.90;;;15.70;93.20;;;;;;5091206;28;20040;-70
2023/05/26 05:14:50;;;;;;;1999.90;999.90;;;15.50;93.10;;;;;;5087215;28;20036;-71
2023/05/26 05:17:21;;;;;;;1999.90;999.90;;;15.40;93.20;;;;;;5089378;28;20081;-71
2023/05/26 05:19:48;;;;;;;1999.90;999.90;;;15.30;93.20;;;;;;5082530;28;20032;-72
2023/05/26 05:22:16;;;;;;;1999.90;999.90;;;15.20;93.20;;;;;;5090399;28;20031;-71
2023/05/26 05:24:43;;;;;;;1999.90;999.90;;;15.00;93.20;;;;;;5084731;28;20028;-70
2023/05/26 05:27:10;;;;;;;1999.90;999.90;;;14.80;93.80;;;;;;5092251;28;20553;-72
2023/05/26 05:29:38;;;;;;;1999.90;999.90;;;14.80;94.30;;;;;;5085164;28;20028;-70
2023/05/26 05:32:05;;;;;;;1999.90;999.90;;;14.60;94.60;;;;;;5089581;28;20036;-70
2023/05/26 05:34:33;;;;;;;1999.90;999.90;;;14.50;94.90;;;;;;5071181;28;20118;-71
2023/05/26 05:37:00;;;;;;;1999.90;999.90;;;14.40;95.00;;;;;;5089336;28;20036;-70
2023/05/26 05:39:27;;;;;;;1999.90;999.90;;;14.30;95.10;;;;;;5092347;28;20085;-72
2023/05/26 05:41:55;;;;;;;1999.90;999.90;;;14.20;94.90;;;;;;5098683;28;20089;-69
2023/05/26 05:44:22;;;;;;;1999.90;999.90;;;14.20;94.90;;;;;;5067202;28;20047;-70
2023/05/26 05:46:51;;;;;;;1999.90;999.90;;;14.10;95.10;;;;;;5094938;28;20028;-70
2023/05/26 05:49:18;;;;;;;1999.90;999.90;;;14.10;94.70;;;;;;5098606;28;20028;-71
2023/05/26 05:51:46;;;;;;;1999.90;999.90;;;14.10;94.70;;;;;;5094310;28;20019;-70
2023/05/26 05:54:13;;;;;;;1999.90;999.90;;;14.10;94.70;;;;;;5094752;28;20444;-70
2023/05/26 05:56:41;;;;;;;1999.90;999.90;;;14.10;94.70;;;;;;5086843;28;20481;-69
2023/05/26 05:59:10;;;;;;;1999.90;999.90;;;14.10;94.90;;;;;;5088158;28;20056;-70
2023/05/26 06:01:38;;;;;;;1999.90;999.90;;;14.00;95.10;;;;;;5077351;28;20560;-70
2023/05/26 06:04:05;;;;;;;1999.90;999.90;;;14.00;95.10;;;;;;5081005;28;20070;-69
2023/05/26 06:06:32;;;;;;;1999.90;999.90;;;14.00;95.10;;;;;;5091926;28;20466;-70
2023/05/26 06:09:00;;;;;;;1999.90;999.90;;;14.00;95.20;;;;;;5085352;28;21021;-70
2023/05/26 06:11:27;;;;;;;1999.90;999.90;;;14.00;95.40;;;;;;5097566;28;20065;-71
2023/05/26 06:13:54;;;;;;;1999.90;999.90;;;13.90;95.70;;;;;;5089725;28;22422;-70
2023/05/26 06:16:22;;;;;;;1999.90;999.90;;;13.90;95.70;;;;;;5095067;28;20035;-70
2023/05/26 06:18:49;;;;;;;1999.90;999.90;;;13.90;95.60;;;;;;5084139;28;20146;-70
2023/05/26 06:21:16;;;;;;;1999.90;999.90;;;13.90;95.70;;;;;;5087773;28;20028;-71
2023/05/26 06:23:44;;;;;;;1999.90;999.90;;;14.10;95.90;;;;;;5083280;28;20125;-70
2023/05/26 06:26:11;;;;;;;1999.90;999.90;;;14.20;95.70;;;;;;5087466;28;20036;-71
2023/05/26 06:28:38;;;;;;;1999.90;999.90;;;14.20;95.50;;;;;;5083792;28;20024;-70
2023/05/26 06:31:06;;;;;;;1999.90;999.90;;;14.20;95.60;;;;;;5092521;28;20524;-70
2023/05/26 06:33:33;;;;;;;1999.90;999.90;;;14.10;95.50;;;;;;5089825;28;20027;-71
2023/05/26 06:36:00;;;;;;;1999.90;999.90;;;14.00;95.90;;;;;;5086305;28;20843;-71
2023/05/26 06:38:28;;;;;;;1999.90;999.90;;;13.90;96.00;;;;;;5084472;28;20032;-70
2023/05/26 06:40:55;;;;;;;1999.90;999.90;;;13.80;96.00;;;;;;5084715;28;20032;-70
2023/05/26 06:43:22;;;;;;;1999.90;999.90;;;13.70;96.00;;;;;;5085931;28;20027;-71
2023/05/26 06:45:50;;;;;;;1999.90;999.90;;;13.60;96.10;;;;;;5087658;28;20458;-71
2023/05/26 06:48:18;;;;;;;1999.90;999.90;;;13.60;96.30;;;;;;5091180;28;20039;-71
2023/05/26 06:50:46;;;;;;;1999.90;999.90;;;13.50;96.30;;;;;;5088266;28;20052;-71
2023/05/26 06:53:13;;;;;;;1999.90;999.90;;;13.40;96.60;;;;;;5080412;28;20112;-69
2023/05/26 06:55:40;;;;;;;1999.90;999.90;;;13.30;96.70;;;;;;5086150;28;20474;-71
2023/05/26 06:58:08;;;;;;;1999.90;999.90;;;13.20;96.80;;;;;;5089606;28;20036;-70
2023/05/26 07:00:35;;;;;;;1999.90;999.90;;;13.00;97.00;;;;;;5085916;28;20040;-71
2023/05/26 07:03:02;;;;;;;1999.90;999.90;;;12.90;97.30;;;;;;5090215;28;20051;-71
2023/05/26 07:05:30;;;;;;;1999.90;999.90;;;12.70;97.30;;;;;;5073447;28;20031;-71
2023/05/26 07:07:57;;;;;;;1999.90;999.90;;;12.60;97.60;;;;;;5091618;28;20032;-70
2023/05/26 07:10:24;;;;;;;1999.90;999.90;;;12.40;98.00;;;;;;5093535;28;20024;-70
2023/05/26 07:12:52;;;;;;;1999.90;999.90;;;12.30;98.50;;;;;;5092947;28;20032;-68
2023/05/26 07:15:19;;;;;;;1999.90;999.90;;;12.20;98.80;;;;;;5092644;28;20363;-69
2023/05/26 07:17:46;;;;;;;1999.90;999.90;;;12.10;99.00;;;;;;5100827;28;20035;-68
2023/05/26 07:20:14;;;;;;;1999.90;999.90;;;12.00;99.20;;;;;;5086813;28;20115;-69
2023/05/26 07:22:41;;;;;;;1999.90;999.90;;;11.90;99.60;;;;;;5090781;28;20028;-70
2023/05/26 07:25:09;;;;;;;1999.90;999.90;;;11.80;99.70;;;;;;5093098;28;20497;-71
2023/05/26 07:27:37;;;;;;;1999.90;999.90;;;11.80;99.70;;;;;;5093393;28;20055;-70
2023/05/26 07:30:05;;;;;;;1999.90;999.90;;;11.70;99.70;;;;;;5060278;28;20039;-70
2023/05/26 07:32:32;;;;;;;1999.90;999.90;;;11.70;99.90;;;;;;5100420;28;20050;-71
2023/05/26 07:34:59;;;;;;;1999.90;999.90;;;11.60;99.90;;;;;;5095039;28;20043;-71
2023/05/26 07:37:27;;;;;;;1999.90;999.90;;;11.50;99.90;;;;;;5097107;28;20052;-70
2023/05/26 07:39:55;;;;;;;1999.90;999.90;;;11.50;99.90;;;;;;5086077;28;20561;-69
2023/05/26 07:42:23;;;;;;;1999.90;999.90;;;11.40;99.90;;;;;;5086722;28;20114;-69
2023/05/26 07:44:51;;;;;;;1999.90;999.90;;;11.40;99.90;;;;;;5095152;28;20451;-70
2023/05/26 07:47:18;;;;;;;1999.90;999.90;;;11.30;99.90;;;;;;5087319;28;20030;-70
2023/05/26 07:49:46;;;;;;;1999.90;999.90;;;11.20;99.90;;;;;;5091703;28;20388;-71
2023/05/26 07:52:16;;;;;;;1999.90;999.90;;;11.10;99.90;;;;;;5094817;28;20028;-71
2023/05/26 07:54:43;;;;;;;1999.90;999.90;;;11.10;99.90;;;;;;5095840;28;20081;-70
2023/05/26 07:57:11;;;;;;;1999.90;999.90;;;11.00;99.90;;;;;;5097737;28;20039;-71
2023/05/26 07:59:38;;;;;;;1999.90;999.90;;;10.90;99.90;;;;;;5078179;28;20513;-72
2023/05/26 08:02:06;;;;;;;1999.90;999.90;;;10.90;99.90;;;;;;5089046;28;20105;-70
2023/05/26 08:04:34;;;;;;;1999.90;999.90;;;10.80;99.90;;;;;;5085737;28;20046;-71
2023/05/26 08:07:01;;;;;;;1999.90;999.90;;;10.80;99.90;;;;;;5091635;28;20477;-71
2023/05/26 08:09:29;;;;;;;1999.90;999.90;;;10.70;99.90;;;;;;5090771;28;20052;-70
2023/05/26 08:11:56;;;;;;;1999.90;999.90;;;10.70;99.90;;;;;;5090783;28;20034;-69
2023/05/26 08:14:24;;;;;;;1999.90;999.90;;;10.60;99.90;;;;;;5091387;28;20020;-70
2023/05/26 08:16:51;;;;;;;1999.90;999.90;;;10.50;99.90;;;;;;5071552;28;20657;-71
2023/05/26 08:19:18;;;;;;;1999.90;999.90;;;10.50;99.90;;;;;;5087598;28;20514;-70
2023/05/26 08:21:46;;;;;;;1999.90;999.90;;;10.40;99.90;;;;;;5091882;28;20103;-70
2023/05/26 08:24:14;;;;;;;1999.90;999.90;;;10.40;99.90;;;;;;5088274;28;20077;-70
2023/05/26 08:26:41;;;;;;;1999.90;999.90;;;10.30;99.90;;;;;;5091100;28;20458;-72
2023/05/26 08:29:10;;;;;;;1999.90;999.90;;;10.30;99.90;;;;;;5085428;28;20029;-69
2023/05/26 08:31:37;;;;;;;1999.90;999.90;;;10.20;99.90;;;;;;5095788;28;20114;-69
2023/05/26 08:34:06;;;;;;;1999.90;999.90;;;10.20;99.90;;;;;;5081809;28;20111;-70
2023/05/26 08:36:35;;;;;;;1999.90;999.90;;;10.20;99.90;;;;;;5088837;28;20066;-71
2023/05/26 08:39:02;;;;;;;1999.90;999.90;;;10.10;99.90;;;;;;5080477;28;20134;-71
2023/05/26 08:41:48;;;;;;;1999.90;999.90;;;10.00;99.90;;;;;;5088233;28;20389;-70
2023/05/26 08:44:17;;;;;;;1999.90;999.90;;;10.00;99.90;;;;;;5076332;28;20027;-69
2023/05/26 08:46:57;;;;;;;1999.90;999.90;;;10.00;99.90;;;;;;5086452;28;20028;-69
2023/05/26 08:49:25;;;;;;;1999.90;999.90;;;9.90;99.90;;;;;;5093506;28;20032;-70
2023/05/26 08:52:04;;;;;;;1999.90;999.90;;;9.90;99.90;;;;;;5088883;28;20020;-70
2023/05/26 08:54:32;;;;;;;1999.90;999.90;;;9.80;99.90;;;;;;5083573;28;20032;-70
2023/05/26 08:57:01;;;;;;;1999.90;999.90;;;9.80;99.90;;;;;;5092643;28;20429;-71
2023/05/26 08:59:29;;;;;;;1999.90;999.90;;;9.80;99.90;;;;;;5094034;28;20035;-71
2023/05/26 09:01:58;;;;;;;1999.90;999.90;;;9.70;99.90;;;;;;5107917;28;20067;-72
2023/05/26 09:04:30;;;;;;;1999.90;999.90;;;9.70;99.90;;;;;;5096212;28;20035;-72
2023/05/26 09:06:59;;;;;;;1999.90;999.90;;;9.70;99.90;;;;;;5097339;28;20036;-72
2023/05/26 09:09:26;;;;;;;1999.90;999.90;;;9.60;99.90;;;;;;5091422;28;20080;-71
2023/05/26 09:11:56;;;;;;;1999.90;999.90;;;9.50;99.90;;;;;;5097024;28;20028;-71
2023/05/26 09:14:24;;;;;;;1999.90;999.90;;;9.60;99.90;;;;;;5072320;28;20057;-71
2023/05/26 09:16:54;;;;;;;1999.90;999.90;;;9.50;99.90;;;;;;5097226;28;20032;-72
2023/05/26 09:19:22;;;;;;;1999.90;999.90;;;9.60;99.90;;;;;;5092222;28;20039;-70
2023/05/26 09:21:51;;;;;;;1999.90;999.90;;;9.50;99.90;;;;;;5097940;28;21299;-71
2023/05/26 09:24:27;;;;;;;1999.90;999.90;;;9.50;99.90;;;;;;5095813;28;20027;-72
2023/05/26 09:26:54;;;;;;;;;;;9.50;99.90;;;;;;5102046;28;20028;-72
2023/05/26 09:29:21;;;;;;;1999.90;999.90;;;9.40;99.90;;;;;;5095590;28;19916;-71
2023/05/26 09:31:49;;;;;;;1999.90;999.90;;;9.40;99.90;;;;;;5097696;28;20027;-70
2023/05/26 09:34:23;;;;;;;1999.90;999.90;;;9.30;99.90;;;;;;5097411;28;20043;-71
2023/05/26 09:36:51;;;;;;;1999.90;999.90;;;9.30;99.90;;;;;;5096076;28;20075;-70
2023/05/26 09:39:18;;;;;;;1999.90;999.90;;;9.30;99.90;;;;;;5091124;28;20065;-69
2023/05/26 09:41:46;;;;;;;1999.90;999.90;;;9.20;99.90;;;;;;5096777;28;20120;-70
2023/05/26 09:44:17;;;;;;;1999.90;999.90;;;9.10;99.90;;;;;;5091389;28;20019;-71
2023/05/26 09:46:45;;;;;;;1999.90;999.90;;;9.10;99.90;;;;;;5098239;28;20035;-72
2023/05/26 09:49:17;;;;;;;1999.90;999.90;;;9.00;99.90;;;;;;5083749;28;20032;-71
2023/05/26 09:51:50;;;;;;;1999.90;999.90;;;9.00;99.90;;;;;;5091588;28;20386;-71
2023/05/26 09:54:17;;;;;;;1999.90;999.90;;;8.90;99.90;;;;;;5091243;28;20034;-70
2023/05/26 09:56:52;;;;;;;1999.90;999.90;;;8.90;99.90;;;;;;5094447;28;20161;-72
2023/05/26 09:59:26;;;;;;;1999.90;999.90;;;8.90;99.90;;;;;;5091896;28;20117;-69
2023/05/26 10:01:55;;;;;;;1999.90;999.90;;;8.90;99.90;;;;;;5104141;28;20494;-71
2023/05/26 10:04:22;;;;;;;1999.90;999.90;;;8.90;99.90;;;;;;5092557;28;20376;-71
2023/05/26 10:06:51;;;;;;;1999.90;999.90;;;8.80;99.90;;;;;;5094705;28;20020;-69
2023/05/26 10:09:22;;;;;;;1999.90;999.90;;;8.80;99.90;;;;;;5071345;28;20378;-71
2023/05/26 10:11:53;;;;;;;1999.90;999.90;;;8.90;99.90;;;;;;5081980;28;20101;-70
2023/05/26 10:14:21;;;;;;;1999.90;999.90;;;8.80;99.90;;;;;;5087781;28;20544;-71
2023/05/26 10:16:50;;;;;;;1999.90;999.90;;;8.90;99.90;;;;;;5092261;28;20116;-69
2023/05/26 10:19:18;;;;;;;1999.90;999.90;;;8.90;99.90;;;;;;5086360;28;20100;-72
2023/05/26 10:21:52;;;;;;;1999.90;999.90;;;8.80;99.90;;;;;;5093265;28;20453;-70
2023/05/26 10:24:38;;;;;;;1999.90;999.90;;;8.90;99.90;;;;;;5101140;28;20069;-70
2023/05/26 10:27:29;;;;;;;1999.90;999.90;;;8.80;99.90;;;;;;5090851;28;20040;-70
2023/05/26 10:30:01;;;;;;;1999.90;999.90;;;8.80;99.90;;;;;;5093352;28;20695;-71
2023/05/26 10:32:46;;;;;;;1999.90;999.90;;;8.80;99.90;;;;;;5091271;28;20386;-70
2023/05/26 10:35:27;;;;;;;1999.90;999.90;;;8.80;99.90;;;;;;5085054;28;20307;-69
2023/05/26 10:38:03;;;;;;;1999.90;999.90;;;8.90;99.90;;;;;;5085102;28;20037;-72
2023/05/26 10:40:45;;;;;;;1999.90;999.90;;;8.80;99.90;;;;;;5087763;28;20019;-70
2023/05/26 10:43:22;;;;;;;1999.90;999.90;;;8.80;99.90;;;;;;5094147;28;20103;-70
2023/05/26 10:46:03;;;;;;;1999.90;999.90;;;8.80;99.90;;;;;;5089365;28;20024;-71
2023/05/26 10:48:38;;;;;;;1999.90;999.90;;;8.70;99.90;;;;;;5085536;28;20432;-70
2023/05/26 10:51:37;;;;;;;1999.90;999.90;;;8.70;99.90;;;;;;5089956;28;20035;-69
2023/05/26 10:54:18;;;;;;;1999.90;999.90;;;8.70;99.90;;;;;;5085788;28;20513;-73
2023/05/26 10:56:50;;;;;;;1999.90;999.90;;;8.60;99.90;;;;;;5090293;28;20038;-69
2023/05/26 10:59:33;;;;;;;1999.90;999.90;;;8.60;99.90;;;;;;5086737;28;20031;-71
2023/05/26 11:02:06;;;;;;;1999.90;999.90;;;8.60;99.90;;;;;;5100572;28;20506;-71
2023/05/26 11:04:46;;;;;;;1999.90;999.90;;;8.60;99.90;;;;;;5092873;28;20019;-71
2023/05/26 11:07:27;;;;;;;1999.90;999.90;;;8.50;99.90;;;;;;5095449;28;20052;-71
2023/05/26 11:10:06;;;;;;;1999.90;999.90;;;8.50;99.90;;;;;;5087965;28;20031;-70
2023/05/26 11:12:58;;;;;;;1999.90;999.90;;;8.50;99.90;;;;;;5101087;28;20130;-71
2023/05/26 11:15:33;;;;;;;1999.90;999.90;;;8.40;99.90;;;;;;5093454;28;20044;-69
2023/05/26 11:18:09;;;;;;;1999.90;999.90;;;8.30;99.90;;;;;;5099264;28;20057;-70
2023/05/26 11:20:37;;;;;;;1999.90;999.90;;;8.30;99.90;;;;;;5095442;28;20046;-72
2023/05/26 11:23:06;;;;;;;1999.90;999.90;;;8.30;99.90;;;;;;5094255;28;20544;-70
2023/05/26 11:25:47;;;;;;;1999.90;999.90;;;8.20;99.90;;;;;;5093483;28;20070;-71
2023/05/26 11:28:20;;;;;;;1999.90;999.90;;;8.20;99.90;;;;;;5098618;28;20421;-71
2023/05/26 11:30:48;;;;;;;1999.90;999.90;;;8.20;99.90;;;;;;5094297;28;20485;-72
2023/05/26 11:33:15;;;;;;;1999.90;999.90;;;8.10;99.90;;;;;;5098284;28;20028;-70
2023/05/26 11:35:42;;;;;;;1999.90;999.90;;;8.20;99.90;;;;;;5091546;28;20474;-72
2023/05/26 11:38:10;;;;;;;1999.90;999.90;;;8.20;99.90;;;;;;5096038;28;20042;-70
2023/05/26 11:40:37;;;;;;;1999.90;999.90;;;8.30;99.90;;;;;;5092609;28;20024;-72
2023/05/26 11:43:05;;;;;;;1999.90;999.90;;;8.40;99.90;;;;;;5091069;28;20036;-70
2023/05/26 11:45:34;;;;;;;1999.90;999.90;;;8.40;99.90;;;;;;5087413;28;20028;-69
2023/05/26 11:48:01;;;;;;;1999.90;999.90;;;8.50;99.90;;;;;;5091873;28;20032;-72
2023/05/26 11:50:28;;;;;;;1999.90;999.90;;;8.50;99.90;;;;;;5091872;28;20054;-71
2023/05/26 11:52:56;;;;;;;1999.90;999.90;;;8.60;99.90;;;;;;5094434;28;20032;-72
2023/05/26 11:55:23;;;;;;;1999.90;999.90;;;8.50;99.90;;;;;;5089971;28;20474;-71
2023/05/26 11:57:52;;;;;;;1999.90;999.90;;;8.50;99.90;;;;;;5098273;28;20066;-73
2023/05/26 12:00:20;;;;;;;1999.90;999.90;;;8.60;99.90;;;;;;5084067;28;20027;-71
2023/05/26 12:02:48;;;;;;;1999.90;999.90;;;8.50;99.90;;;;;;5095939;28;20044;-71
2023/05/26 12:05:27;;;;;;;1999.90;999.90;;;8.50;99.90;;;;;;5079759;28;20028;-72
2023/05/26 12:08:10;;;;;;;1999.90;999.90;;;8.50;99.90;;;;;;5067142;28;20101;-69
2023/05/26 12:10:42;;;;;;;1999.90;999.90;;;8.50;99.90;;;;;;5082712;28;20143;-70
2023/05/26 12:13:11;;;;;;;1999.90;999.90;;;8.40;99.90;;;;;;5089632;28;20030;-71